createdAt,value
2022-09-28T00:00:58.999Z,2.50
2022-09-28T00:03:25.870Z,2.33
2022-09-28T00:05:52.771Z,2.30
2022-09-28T00:08:19.630Z,2.30
2022-09-28T00:10:54.889Z,2.00
2022-09-28T00:13:22.126Z,2.50
2022-09-28T00:15:58.409Z,2.50
2022-09-28T00:18:25.239Z,2.38
2022-09-28T00:21:21.549Z,2.50
2022-09-28T00:24:06.919Z,2.25
2022-09-28T00:26:34.152Z,2.20
2022-09-28T00:29:02.930Z,2.55
2022-09-28T00:31:32.850Z,2.50
2022-09-28T00:34:06.063Z,2.30
2022-09-28T00:36:33.257Z,2.45
2022-09-28T00:39:02.954Z,2.17
2022-09-28T00:41:29.776Z,2.38
2022-09-28T00:44:27.833Z,2.47
2022-09-28T00:47:12.707Z,2.30
2022-09-28T00:49:44.655Z,1.90
2022-09-28T00:52:15.515Z,2.20
2022-09-28T00:54:42.697Z,2.20
2022-09-28T00:57:09.985Z,2.30
2022-09-28T00:59:36.838Z,2.20
2022-09-28T01:02:03.791Z,2.35
2022-09-28T01:04:30.709Z,2.20
2022-09-28T01:06:57.907Z,2.15
2022-09-28T01:09:25.991Z,2.08
2022-09-28T01:11:52.822Z,2.45
2022-09-28T01:14:20.690Z,2.20
2022-09-28T01:17:08.421Z,2.35
2022-09-28T01:20:22.795Z,2.42
2022-09-28T01:23:14.182Z,2.40
2022-09-28T01:26:26.901Z,2.50
2022-09-28T01:28:57.336Z,2.20
2022-09-28T01:31:26.329Z,2.00
2022-09-28T01:33:59.786Z,2.25
2022-09-28T01:36:34.771Z,2.47
2022-09-28T01:39:34.997Z,1.85
2022-09-28T01:42:05.869Z,2.33
2022-09-28T01:44:37.421Z,2.50
2022-09-28T01:47:04.869Z,2.17
2022-09-28T01:49:38.728Z,2.13
2022-09-28T01:52:34.813Z,2.10
2022-09-28T01:55:11.888Z,1.95
2022-09-28T01:57:44.678Z,2.15
2022-09-28T02:00:14.182Z,2.40
2022-09-28T02:02:55.657Z,2.20
2022-09-28T02:05:33.103Z,2.85
2022-09-28T02:08:10.178Z,2.38
2022-09-28T02:10:46.388Z,2.35
2022-09-28T02:13:25.754Z,2.00
2022-09-28T02:16:03.025Z,2.30
2022-09-28T02:18:30.073Z,2.25
2022-09-28T02:21:13.470Z,2.22
2022-09-28T02:23:41.563Z,2.13
2022-09-28T02:26:10.665Z,2.10
2022-09-28T02:28:37.738Z,2.35
2022-09-28T02:31:04.937Z,2.05
2022-09-28T02:33:37.130Z,1.90
2022-09-28T02:36:04.416Z,2.00
2022-09-28T02:38:37.178Z,2.50
2022-09-28T02:41:10.837Z,1.98
2022-09-28T02:43:58.313Z,2.17
2022-09-28T02:46:49.711Z,2.20
2022-09-28T02:49:36.743Z,2.35
2022-09-28T02:52:20.882Z,2.15
2022-09-28T02:55:29.730Z,2.00
2022-09-28T02:58:18.223Z,2.15
2022-09-28T03:00:49.421Z,2.15
2022-09-28T03:03:24.051Z,2.40
2022-09-28T03:06:00.334Z,2.00
2022-09-28T03:08:40.619Z,1.80
2022-09-28T03:11:12.979Z,2.40
2022-09-28T03:13:40.093Z,2.40
2022-09-28T03:16:17.837Z,2.20
2022-09-28T03:18:47.374Z,2.65
2022-09-28T03:21:14.862Z,1.80
2022-09-28T03:23:42.153Z,2.35
2022-09-28T03:26:13.706Z,1.92
2022-09-28T03:28:40.717Z,2.15
2022-09-28T03:31:11.416Z,2.00
2022-09-28T03:33:38.402Z,2.60
2022-09-28T03:36:05.959Z,2.20
2022-09-28T03:38:32.866Z,1.95
2022-09-28T03:41:00.511Z,2.17
2022-09-28T03:43:32.849Z,2.05
2022-09-28T03:46:02.475Z,2.22
2022-09-28T03:48:34.606Z,2.33
2022-09-28T03:51:03.401Z,2.40
2022-09-28T03:53:30.320Z,2.28
2022-09-28T03:56:02.794Z,2.20
2022-09-28T03:58:31.921Z,2.28
2022-09-28T04:01:06.967Z,2.30
2022-09-28T04:03:33.881Z,1.90
2022-09-28T04:06:00.801Z,2.13
2022-09-28T04:08:27.969Z,2.15
2022-09-28T04:10:58.547Z,2.55
2022-09-28T04:13:26.611Z,2.20
2022-09-28T04:15:57.480Z,2.20
2022-09-28T04:18:25.603Z,3.15
2022-09-28T04:21:06.819Z,2.20
2022-09-28T04:23:38.894Z,2.25
2022-09-28T04:26:06.953Z,2.05
2022-09-28T04:28:52.264Z,2.70
2022-09-28T04:31:20.812Z,2.33
2022-09-28T04:33:47.744Z,2.63
2022-09-28T04:36:14.683Z,2.30
2022-09-28T04:38:52.709Z,2.55
2022-09-28T04:41:22.525Z,2.50
2022-09-28T04:43:50.344Z,2.30
2022-09-28T04:46:17.286Z,2.42
2022-09-28T04:48:53.915Z,2.28
2022-09-28T04:51:45.120Z,2.67
2022-09-28T04:54:12.096Z,2.38
2022-09-28T04:56:39.007Z,2.30
2022-09-28T04:59:06.139Z,2.55
2022-09-28T05:01:33.088Z,2.60
2022-09-28T05:04:00.003Z,2.42
2022-09-28T05:06:43.366Z,2.75
2022-09-28T05:09:10.327Z,2.30
2022-09-28T05:11:37.238Z,2.53
2022-09-28T05:14:08.536Z,2.72
2022-09-28T05:16:35.869Z,2.30
2022-09-28T05:19:18.017Z,2.67
2022-09-28T05:21:45.659Z,2.45
2022-09-28T05:24:12.982Z,2.55
2022-09-28T05:26:40.506Z,2.22
2022-09-28T05:29:09.514Z,2.70
2022-09-28T05:32:02.621Z,2.13
2022-09-28T05:34:46.574Z,2.15
2022-09-28T05:37:19.445Z,2.70
2022-09-28T05:39:47.108Z,2.45
2022-09-28T05:42:13.905Z,2.85
2022-09-28T05:44:42.614Z,2.42
2022-09-28T05:47:09.686Z,2.42
2022-09-28T05:49:36.522Z,2.33
2022-09-28T05:52:03.513Z,2.70
2022-09-28T05:54:31.584Z,2.70
2022-09-28T05:56:58.502Z,2.88
2022-09-28T05:59:26.778Z,2.60
2022-09-28T06:01:53.755Z,2.60
2022-09-28T06:04:21.149Z,2.70
2022-09-28T06:06:48.524Z,2.80
2022-09-28T06:09:16.591Z,2.80
2022-09-28T06:12:11.136Z,2.42
2022-09-28T06:14:44.131Z,2.95
2022-09-28T06:17:11.870Z,2.60
2022-09-28T06:19:39.254Z,3.35
2022-09-28T06:22:24.895Z,2.90
2022-09-28T06:24:59.479Z,2.50
2022-09-28T06:27:26.437Z,3.17
2022-09-28T06:29:53.576Z,2.60
2022-09-28T06:32:20.413Z,3.25
2022-09-28T06:34:52.841Z,2.80
2022-09-28T06:37:25.998Z,2.75
2022-09-28T06:39:53.611Z,2.80
2022-09-28T06:42:20.850Z,3.03
2022-09-28T06:45:11.771Z,3.15
2022-09-28T06:50:37.575Z,3.20
2022-09-28T06:53:33.662Z,2.88
2022-09-28T06:56:11.304Z,2.97
2022-09-28T06:58:38.251Z,2.92
2022-09-28T07:01:06.158Z,2.95
2022-09-28T07:03:45.234Z,3.17
2022-09-28T07:06:32.354Z,3.03
2022-09-28T07:09:31.720Z,2.78
2022-09-28T07:12:18.641Z,2.80
2022-09-28T07:15:12.175Z,3.10
2022-09-28T07:17:53.843Z,3.22
2022-09-28T07:20:25.415Z,3.22
2022-09-28T07:22:56.477Z,3.85
2022-09-28T07:25:25.592Z,3.08
2022-09-28T07:28:27.211Z,3.50
2022-09-28T07:31:29.691Z,3.50
2022-09-28T07:34:32.315Z,3.22
2022-09-28T07:37:03.084Z,3.65
2022-09-28T07:39:30.024Z,3.53
2022-09-28T07:42:02.650Z,3.92
2022-09-28T07:44:30.946Z,4.28
2022-09-28T07:46:58.598Z,3.63
2022-09-28T07:49:51.198Z,3.75
2022-09-28T07:52:46.295Z,3.65
2022-09-28T07:55:24.734Z,4.00
2022-09-28T07:58:19.383Z,3.60
2022-09-28T08:01:21.614Z,4.03
2022-09-28T08:03:49.768Z,4.20
2022-09-28T08:06:17.126Z,4.35
2022-09-28T08:08:44.661Z,5.05
2022-09-28T08:11:14.973Z,4.75
2022-09-28T08:14:00.643Z,4.65
2022-09-28T08:16:48.514Z,4.43
2022-09-28T08:19:53.849Z,4.18
2022-09-28T08:22:20.848Z,4.05
2022-09-28T08:24:52.065Z,4.53
2022-09-28T08:27:19.016Z,3.88
2022-09-28T08:29:45.970Z,3.95
2022-09-28T08:32:39.071Z,4.20
2022-09-28T08:35:25.713Z,4.20
2022-09-28T08:38:11.565Z,3.72
2022-09-28T08:41:26.500Z,4.38
2022-09-28T08:44:12.518Z,3.83
2022-09-28T08:47:38.305Z,3.50
2022-09-28T08:50:27.778Z,3.90
2022-09-28T08:53:05.862Z,4.20
2022-09-28T08:55:50.183Z,4.18
2022-09-28T08:58:28.334Z,4.10
2022-09-28T09:00:55.499Z,4.22
2022-09-28T09:03:35.851Z,4.20
2022-09-28T09:06:42.751Z,4.30
2022-09-28T09:09:46.515Z,4.55
2022-09-28T09:12:23.586Z,4.70
2022-09-28T09:15:17.178Z,4.40
2022-09-28T09:17:50.096Z,4.63
2022-09-28T09:20:35.692Z,4.88
2022-09-28T09:23:36.365Z,4.70
2022-09-28T09:26:22.970Z,4.32
2022-09-28T09:29:05.741Z,4.10
2022-09-28T09:31:56.994Z,4.25
2022-09-28T09:34:45.526Z,4.47
2022-09-28T09:38:17.393Z,4.13
2022-09-28T09:41:43.412Z,3.40
2022-09-28T09:44:53.599Z,3.28
2022-09-28T09:47:40.382Z,3.65
2022-09-28T09:50:29.702Z,3.78
2022-09-28T09:53:12.045Z,3.33
2022-09-28T09:55:41.862Z,3.53
2022-09-28T09:58:35.663Z,3.22
2022-09-28T10:01:30.274Z,3.00
2022-09-28T10:04:32.958Z,3.38
2022-09-28T10:07:06.305Z,2.80
2022-09-28T10:09:43.041Z,2.95
2022-09-28T10:12:22.143Z,3.17
2022-09-28T10:14:50.134Z,3.40
2022-09-28T10:17:20.139Z,3.30
2022-09-28T10:20:06.294Z,3.13
2022-09-28T10:23:02.076Z,3.20
2022-09-28T10:25:33.197Z,3.13
2022-09-28T10:28:00.527Z,2.90
2022-09-28T10:30:28.428Z,2.92
2022-09-28T10:32:59.365Z,2.47
2022-09-28T10:35:39.529Z,2.85
2022-09-28T10:38:07.929Z,2.50
2022-09-28T10:40:48.775Z,2.95
2022-09-28T10:43:24.127Z,2.33
2022-09-28T10:46:08.633Z,2.20
2022-09-28T10:48:48.689Z,2.35
2022-09-28T10:51:16.571Z,2.17
2022-09-28T10:54:01.530Z,1.60
2022-09-28T10:56:55.498Z,1.50
2022-09-28T10:59:28.770Z,1.45
2022-09-28T11:02:13.157Z,1.60
2022-09-28T11:04:41.833Z,1.35
2022-09-28T11:07:25.073Z,1.25
2022-09-28T11:09:54.589Z,1.30
2022-09-28T11:12:26.357Z,1.25
2022-09-28T11:15:01.538Z,1.55
2022-09-28T11:17:33.198Z,1.38
2022-09-28T11:20:26.763Z,1.85
2022-09-28T11:23:08.552Z,1.20
2022-09-28T11:25:39.554Z,1.35
2022-09-28T11:28:06.513Z,1.38
2022-09-28T11:30:52.855Z,1.30
2022-09-28T11:33:30.663Z,1.30
2022-09-28T11:36:53.151Z,1.75
2022-09-28T11:39:33.745Z,1.40
2022-09-28T11:42:19.814Z,1.52
2022-09-28T11:44:49.132Z,1.42
2022-09-28T11:47:26.339Z,1.50
2022-09-28T11:49:56.252Z,1.30
2022-09-28T11:52:33.871Z,1.48
2022-09-28T11:55:15.125Z,1.35
2022-09-28T11:57:43.967Z,1.42
2022-09-28T12:00:15.977Z,1.50
2022-09-28T12:03:13.679Z,1.40
2022-09-28T12:05:55.902Z,1.20
2022-09-28T12:08:37.445Z,1.23
2022-09-28T12:11:12.005Z,2.10
2022-09-28T12:13:59.998Z,1.40
2022-09-28T12:19:35.559Z,1.48
2022-09-28T12:22:11.240Z,1.40
2022-09-28T12:24:40.614Z,1.60
2022-09-28T12:27:10.241Z,1.73
2022-09-28T12:29:59.286Z,1.65
2022-09-28T12:32:46.799Z,1.50
2022-09-28T12:35:25.658Z,1.70
2022-09-28T12:38:01.504Z,1.50
2022-09-28T12:40:47.157Z,1.52
2022-09-28T12:43:33.439Z,1.70
2022-09-28T12:46:12.656Z,1.60
2022-09-28T12:49:43.556Z,1.58
2022-09-28T12:51:59.703Z,1.70
2022-09-28T12:54:41.890Z,1.50
2022-09-28T12:57:40.697Z,1.50
2022-09-28T13:00:12.028Z,2.00
2022-09-28T13:02:48.366Z,1.60
2022-09-28T13:05:55.809Z,1.60
2022-09-28T13:08:31.580Z,1.60
2022-09-28T13:11:06.946Z,1.70
2022-09-28T13:14:19.437Z,1.58
2022-09-28T13:17:06.647Z,1.58
2022-09-28T13:19:51.869Z,1.55
2022-09-28T13:22:34.141Z,1.92
2022-09-28T13:25:03.719Z,1.70
2022-09-28T13:27:36.146Z,1.83
2022-09-28T13:30:06.241Z,1.50
2022-09-28T13:32:33.430Z,1.50
2022-09-28T13:35:02.113Z,1.42
2022-09-28T13:37:29.452Z,1.60
2022-09-28T13:39:59.140Z,1.70
2022-09-28T13:42:32.159Z,1.50
2022-09-28T13:45:22.150Z,1.75
2022-09-28T13:47:51.801Z,1.40
2022-09-28T13:50:27.931Z,1.30
2022-09-28T13:53:01.367Z,1.50
2022-09-28T13:55:56.878Z,1.50
2022-09-28T13:58:32.914Z,1.30
2022-09-28T14:01:01.507Z,1.40
2022-09-28T14:03:48.900Z,1.60
2022-09-28T14:06:28.556Z,1.50
2022-09-28T14:09:13.819Z,1.58
2022-09-28T14:11:42.561Z,1.40
2022-09-28T14:14:13.812Z,1.33
2022-09-28T14:16:41.483Z,1.48
2022-09-28T14:19:13.603Z,1.40
2022-09-28T14:22:03.272Z,1.30
2022-09-28T14:24:51.195Z,1.60
2022-09-28T14:27:36.997Z,1.20
2022-09-28T14:30:12.626Z,1.52
2022-09-28T14:32:40.910Z,1.60
2022-09-28T14:35:18.640Z,1.42
2022-09-28T14:38:20.291Z,1.40
2022-09-28T14:41:09.848Z,1.40
2022-09-28T14:43:45.983Z,1.38
2022-09-28T14:46:14.517Z,1.30
2022-09-28T14:49:03.680Z,1.60
2022-09-28T14:51:30.540Z,1.40
2022-09-28T14:54:13.285Z,1.55
2022-09-28T14:56:57.088Z,1.35
2022-09-28T14:59:25.888Z,1.30
2022-09-28T15:01:55.514Z,1.70
2022-09-28T15:04:23.779Z,1.40
2022-09-28T15:06:51.455Z,1.73
2022-09-28T15:09:36.401Z,1.30
2022-09-28T15:12:30.071Z,1.90
2022-09-28T15:15:08.594Z,1.70
2022-09-28T15:17:39.751Z,1.45
2022-09-28T15:20:25.637Z,1.80
2022-09-28T15:22:57.289Z,1.52
2022-09-28T15:25:28.934Z,1.75
2022-09-28T15:27:57.339Z,2.53
2022-09-28T15:30:32.050Z,1.50
2022-09-28T15:33:18.544Z,1.95
2022-09-28T15:35:55.165Z,2.15
2022-09-28T15:38:21.970Z,2.00
2022-09-28T15:40:48.880Z,1.80
2022-09-28T15:43:28.951Z,1.85
2022-09-28T15:46:14.043Z,2.10
2022-09-28T15:48:53.367Z,1.85
2022-09-28T15:51:21.421Z,1.60
2022-09-28T15:54:01.333Z,1.50
2022-09-28T15:56:28.401Z,1.55
2022-09-28T15:59:14.361Z,1.80
2022-09-28T16:01:44.578Z,1.60
2022-09-28T16:04:30.378Z,1.55
2022-09-28T16:07:36.992Z,1.80
2022-09-28T16:10:12.453Z,1.60
2022-09-28T16:12:48.586Z,1.60
2022-09-28T16:15:49.681Z,1.40
2022-09-28T16:18:20.278Z,1.60
2022-09-28T16:20:49.950Z,1.70
2022-09-28T16:23:17.097Z,1.40
2022-09-28T16:25:54.740Z,1.50
2022-09-28T16:28:34.745Z,1.60
2022-09-28T16:31:13.881Z,1.40
2022-09-28T16:33:45.158Z,1.58
2022-09-28T16:36:13.383Z,2.60
2022-09-28T16:38:41.026Z,1.70
2022-09-28T16:41:08.516Z,1.58
2022-09-28T16:43:36.613Z,1.70
2022-09-28T16:46:09.328Z,1.83
2022-09-28T16:48:39.590Z,1.50
2022-09-28T16:51:06.473Z,1.52
2022-09-28T16:53:51.647Z,1.40
2022-09-28T16:56:18.549Z,1.80
2022-09-28T16:58:48.077Z,1.95
2022-09-28T17:01:15.065Z,1.90
2022-09-28T17:03:46.938Z,1.50
2022-09-28T17:06:13.973Z,1.60
2022-09-28T17:08:41.590Z,1.83
2022-09-28T17:11:16.584Z,1.70
2022-09-28T17:13:46.620Z,2.78
2022-09-28T17:16:14.590Z,4.00
2022-09-28T17:18:41.723Z,4.28
2022-09-28T17:21:19.531Z,3.58
2022-09-28T17:23:47.467Z,3.55
2022-09-28T17:26:30.234Z,3.85
2022-09-28T17:29:01.593Z,4.00
2022-09-28T17:31:31.810Z,3.83
2022-09-28T17:33:58.926Z,6.20
2022-09-28T17:36:26.964Z,5.68
2022-09-28T17:38:53.879Z,5.43
2022-09-28T17:41:21.163Z,5.32
2022-09-28T17:43:48.747Z,4.60
2022-09-28T17:46:28.030Z,4.50
2022-09-28T17:48:55.450Z,5.75
2022-09-28T17:51:23.709Z,5.13
2022-09-28T17:53:50.638Z,3.88
2022-09-28T17:56:17.515Z,3.50
2022-09-28T17:58:44.363Z,3.80
2022-09-28T18:01:11.213Z,4.38
2022-09-28T18:03:38.587Z,5.05
2022-09-28T18:06:06.741Z,4.88
2022-09-28T18:08:33.657Z,5.05
2022-09-28T18:11:01.635Z,4.20
2022-09-28T18:13:28.734Z,4.40
2022-09-28T18:15:55.848Z,4.70
2022-09-28T18:18:23.358Z,4.03
2022-09-28T18:20:50.692Z,4.82
2022-09-28T18:23:17.707Z,4.10
2022-09-28T18:25:45.440Z,4.43
2022-09-28T18:28:12.773Z,4.38
2022-09-28T18:30:41.009Z,3.83
2022-09-28T18:33:09.990Z,2.67
2022-09-28T18:35:36.841Z,2.75
2022-09-28T18:38:05.341Z,2.90
2022-09-28T18:40:33.581Z,2.97
2022-09-28T18:43:00.430Z,2.50
2022-09-28T18:45:27.421Z,2.45
2022-09-28T18:47:54.197Z,2.47
2022-09-28T18:50:21.169Z,2.63
2022-09-28T18:52:48.286Z,2.72
2022-09-28T18:55:15.875Z,3.20
2022-09-28T18:57:44.129Z,3.53
2022-09-28T19:00:11.808Z,3.70
2022-09-28T19:02:38.837Z,3.92
2022-09-28T19:05:06.492Z,3.60
2022-09-28T19:07:33.897Z,3.60
2022-09-28T19:10:00.813Z,3.30
2022-09-28T19:12:27.653Z,3.25
2022-09-28T19:14:54.663Z,3.00
2022-09-28T19:17:21.619Z,3.58
2022-09-28T19:19:48.463Z,3.00
2022-09-28T19:22:15.274Z,3.25
2022-09-28T19:24:42.143Z,2.80
2022-09-28T19:27:09.014Z,2.90
2022-09-28T19:29:35.987Z,2.75
2022-09-28T19:32:02.840Z,3.33
2022-09-28T19:34:30.174Z,2.80
2022-09-28T19:36:57.215Z,3.08
2022-09-28T19:39:24.057Z,3.78
2022-09-28T19:41:54.268Z,3.85
2022-09-28T19:44:29.631Z,4.07
2022-09-28T19:47:07.402Z,3.10
2022-09-28T19:49:38.293Z,3.30
2022-09-28T19:52:15.596Z,3.15
2022-09-28T19:54:59.895Z,3.00
2022-09-28T19:57:28.750Z,3.00
2022-09-28T20:00:00.795Z,3.20
2022-09-28T20:02:32.753Z,3.05
2022-09-28T20:04:59.644Z,3.50
2022-09-28T20:07:26.453Z,3.78
2022-09-28T20:09:53.722Z,3.92
2022-09-28T20:12:20.580Z,3.83
2022-09-28T20:14:47.475Z,3.50
2022-09-28T20:17:14.384Z,3.25
2022-09-28T20:19:41.375Z,2.90
2022-09-28T20:22:08.409Z,3.13
2022-09-28T20:24:35.226Z,3.33
2022-09-28T20:27:02.496Z,3.33
2022-09-28T20:29:31.728Z,3.17
2022-09-28T20:31:59.096Z,3.10
2022-09-28T20:34:25.990Z,3.08
2022-09-28T20:36:52.953Z,3.00
2022-09-28T20:39:19.852Z,3.10
2022-09-28T20:41:49.128Z,3.20
2022-09-28T20:44:16.229Z,3.13
2022-09-28T20:46:44.127Z,3.15
2022-09-28T20:49:11.135Z,3.60
2022-09-28T20:51:37.934Z,4.05
2022-09-28T20:54:04.935Z,4.72
2022-09-28T20:56:39.271Z,6.28
2022-09-28T20:59:10.747Z,7.10
2022-09-28T21:01:37.757Z,8.13
2022-09-28T21:04:05.407Z,7.43
2022-09-28T21:06:34.289Z,6.82
2022-09-28T21:09:01.203Z,6.75
2022-09-28T21:11:28.418Z,6.40
2022-09-28T21:13:58.148Z,6.18
2022-09-28T21:16:25.491Z,4.97
2022-09-28T21:18:52.367Z,4.53
2022-09-28T21:21:20.229Z,4.90
2022-09-28T21:23:47.281Z,4.07
2022-09-28T21:26:15.991Z,4.60
2022-09-28T21:28:44.705Z,3.97
2022-09-28T21:31:12.103Z,3.90
2022-09-28T21:33:38.969Z,4.47
2022-09-28T21:36:06.971Z,4.43
2022-09-28T21:38:34.179Z,4.35
2022-09-28T21:41:01.238Z,3.83
2022-09-28T21:43:28.795Z,5.05
2022-09-28T21:45:56.009Z,5.22
2022-09-28T21:48:23.610Z,5.30
2022-09-28T21:51:00.683Z,5.65
2022-09-28T21:53:32.162Z,5.32
2022-09-28T21:56:00.045Z,6.30
2022-09-28T21:58:29.239Z,6.55
2022-09-28T22:01:02.377Z,5.68
2022-09-28T22:03:30.175Z,5.90
2022-09-28T22:05:57.099Z,6.53
2022-09-28T22:08:24.236Z,7.15
2022-09-28T22:11:03.349Z,6.40
2022-09-28T22:13:31.515Z,6.38
2022-09-28T22:15:58.830Z,6.18
2022-09-28T22:18:26.950Z,6.00
2022-09-28T22:21:07.216Z,6.18
2022-09-28T22:23:34.227Z,6.10
2022-09-28T22:26:01.950Z,6.38
2022-09-28T22:28:29.146Z,5.93
2022-09-28T22:30:56.718Z,6.10
2022-09-28T22:33:23.783Z,5.45
2022-09-28T22:35:51.333Z,5.57
2022-09-28T22:38:19.170Z,5.53
2022-09-28T22:40:54.722Z,5.22
2022-09-28T22:43:25.503Z,5.18
2022-09-28T22:46:06.250Z,5.20
2022-09-28T22:48:33.457Z,5.13
2022-09-28T22:51:00.575Z,5.13
2022-09-28T22:53:28.513Z,4.82
2022-09-28T22:55:56.341Z,4.82
2022-09-28T22:58:23.731Z,4.03
2022-09-28T23:00:50.550Z,4.18
2022-09-28T23:03:17.873Z,4.43
2022-09-28T23:05:54.626Z,3.80
2022-09-28T23:08:21.659Z,3.97
2022-09-28T23:10:48.761Z,3.92
2022-09-28T23:13:15.739Z,3.70
2022-09-28T23:15:42.852Z,4.10
2022-09-28T23:18:09.842Z,3.85
2022-09-28T23:20:36.827Z,4.10
2022-09-28T23:23:03.632Z,3.80
2022-09-28T23:25:30.565Z,4.00
2022-09-28T23:27:57.447Z,3.97
2022-09-28T23:30:24.330Z,3.80
2022-09-28T23:32:54.323Z,4.53
2022-09-28T23:35:21.473Z,4.63
2022-09-28T23:37:51.762Z,4.20
2022-09-28T23:40:18.963Z,3.90
2022-09-28T23:42:45.861Z,3.70
2022-09-28T23:45:12.656Z,3.50
2022-09-28T23:47:39.650Z,3.65
2022-09-28T23:50:06.863Z,3.60
2022-09-28T23:52:34.089Z,3.40
2022-09-28T23:55:01.226Z,3.67
2022-09-28T23:57:28.124Z,3.55
2022-09-28T23:59:54.988Z,3.35
